Larnaca, Cyprus

1:48 PM EEST on July 30, 2016 (GMT +0300)
Posedonos | | Change Station

Elev 13 ft 34.96 °N, 33.66 °E | Updated 7 minutes ago

Partly Cloudy
Partly Cloudy
89.8 °F
Feels Like 108 °F
N
1.2
Wind Variable Wind from SSW
Gusts 4.3 mph

Today
High -- | Low -- °F
--% Chance of Precip.
Yesterday
High -- | Low -- °F
Precip. -- in
Pressure 29.65 in
Visibility 6.2 miles
Clouds Few 3000 ft
Heat Index 108 °F
Dew Point 81 °F
Humidity 74%
Rainfall 0.49 in
Snow Depth Not available.
5:53 AM 7:49 PM
Waning Crescent, 14% visible
METAR LCLK 301030Z 19009KT 160V220 9999 FEW030 33/21 Q1004 NOSIG
Pressure 29.65 in
Visibility 6.2 miles
Clouds Few 3000 ft
Heat Index 108 °F
Dew Point 81 °F
Humidity 74%
Rainfall 0.49 in
Snow Depth Not available.
5:53 AM 7:49 PM
Waning Crescent, 14% visible
METAR LCLK 301030Z 19009KT 160V220 9999 FEW030 33/21 Q1004 NOSIG

10-Day Weather Forecast

×

Almanac

Astronomy

Jul. 30, 2016 Rise Set
Actual Time
Civil Twilight
Nautical Twilight
Astronomical Twilight
Moon
Length of Visible Light
Length of Day
Tomorrow will be .
, % of the Moon is Illuminated

Today's Extremes

Country Highs Country Lows

Community

WunderPhotos

Upload Photos

1,928,530 photos uploaded!

WunderBlog® & News

Nearby

Air Quality

  Air Quality AQ Index Pollutant
Not available.

Snow Depth

Station Depth Elevation

Earthquake Activity

City Distance Mag. Time & Date
Minimum magnitude displayed is 2.5.

Coastal Water Temperatures

Place Temperature

Stations

Nearby Weather Stations

Station Location Temp. Windchill Dew Point Humidity Wind Precip. Elev Updated Type